createdAt,value
2022-08-04T00:04:15.804Z,26.57
2022-08-04T00:09:22.419Z,26.55
2022-08-04T00:14:25.135Z,26.47
2022-08-04T00:19:30.957Z,26.45
2022-08-04T00:24:33.847Z,26.39
2022-08-04T00:29:36.790Z,26.37
2022-08-04T00:34:40.875Z,26.29
2022-08-04T00:39:43.779Z,26.33
2022-08-04T00:44:54.334Z,26.23
2022-08-04T00:50:05.995Z,26.28
2022-08-04T00:55:22.814Z,26.29
2022-08-04T01:00:25.825Z,26.24
2022-08-04T01:05:37.715Z,26.18
2022-08-04T01:10:46.451Z,26.13
2022-08-04T01:15:59.725Z,26.07
2022-08-04T01:21:36.908Z,26.00
2022-08-04T01:26:56.593Z,25.95
2022-08-04T01:32:03.633Z,25.97
2022-08-04T01:37:10.142Z,25.92
2022-08-04T01:42:31.427Z,25.96
2022-08-04T01:47:37.454Z,25.94
2022-08-04T01:52:41.015Z,25.95
2022-08-04T01:57:44.509Z,25.92
2022-08-04T02:02:48.691Z,25.88
2022-08-04T02:08:03.406Z,25.79
2022-08-04T02:13:12.184Z,25.66
2022-08-04T02:18:23.584Z,25.53
2022-08-04T02:23:31.859Z,25.37
2022-08-04T02:28:37.236Z,25.15
2022-08-04T02:33:43.315Z,25.17
2022-08-04T02:39:00.734Z,25.21
2022-08-04T02:44:05.426Z,25.26
2022-08-04T02:49:10.373Z,25.36
2022-08-04T02:54:13.418Z,25.46
2022-08-04T02:59:16.503Z,25.47
2022-08-04T03:04:32.611Z,25.54
2022-08-04T03:10:08.216Z,25.57
2022-08-04T03:15:46.528Z,25.59
2022-08-04T03:21:12.908Z,25.63
2022-08-04T03:26:28.176Z,25.69
2022-08-04T03:32:06.766Z,25.71
2022-08-04T03:37:56.871Z,25.64
2022-08-04T03:43:58.775Z,25.68
2022-08-04T03:48:55.135Z,25.67
2022-08-04T03:54:11.087Z,25.68
2022-08-04T03:59:48.676Z,25.64
2022-08-04T04:05:05.026Z,25.65
2022-08-04T04:10:26.558Z,25.57
2022-08-04T04:16:05.318Z,25.63
2022-08-04T04:21:32.277Z,25.56
2022-08-04T04:26:55.672Z,25.57
2022-08-04T04:32:06.003Z,25.60
2022-08-04T04:37:22.453Z,25.66
2022-08-04T04:42:37.506Z,25.62
2022-08-04T04:48:09.768Z,25.66
2022-08-04T04:53:14.937Z,25.67
2022-08-04T04:58:18.684Z,25.64
2022-08-04T05:03:39.097Z,25.68
2022-08-04T05:08:54.185Z,25.68
2022-08-04T05:14:34.755Z,25.70
2022-08-04T05:19:25.671Z,25.61
2022-08-04T05:24:28.583Z,25.70
2022-08-04T05:29:41.093Z,25.74
2022-08-04T05:34:48.910Z,25.77
2022-08-04T05:39:55.064Z,25.63
2022-08-04T05:44:57.824Z,25.46
2022-08-04T05:50:03.191Z,25.37
2022-08-04T05:55:07.039Z,25.40
2022-08-04T06:00:38.765Z,25.57
2022-08-04T06:05:34.903Z,25.61
2022-08-04T06:10:38.821Z,25.66
2022-08-04T06:15:46.097Z,25.68
2022-08-04T06:20:51.419Z,25.65
2022-08-04T06:25:55.721Z,25.67
2022-08-04T06:32:26.999Z,25.78
2022-08-04T06:36:27.144Z,25.82
2022-08-04T06:41:29.971Z,25.83
2022-08-04T06:46:33.057Z,25.87
2022-08-04T06:51:46.930Z,25.97
2022-08-04T06:56:51.891Z,26.01
2022-08-04T07:01:54.668Z,26.03
2022-08-04T07:06:58.952Z,26.07
2022-08-04T07:12:01.692Z,26.05
2022-08-04T07:17:05.724Z,26.09
2022-08-04T07:22:18.189Z,26.10
2022-08-04T07:27:47.651Z,26.10
2022-08-04T07:32:51.416Z,26.11
2022-08-04T07:37:55.495Z,26.15
2022-08-04T07:42:58.553Z,26.15
2022-08-04T07:48:04.857Z,26.20
2022-08-04T07:53:55.167Z,26.24
2022-08-04T07:58:33.905Z,26.26
2022-08-04T08:03:36.724Z,26.34
2022-08-04T08:08:40.951Z,26.38
2022-08-04T08:13:45.448Z,26.37
2022-08-04T08:18:50.149Z,26.42
2022-08-04T08:23:54.390Z,26.43
2022-08-04T08:28:57.136Z,26.42
2022-08-04T08:34:00.529Z,26.39
2022-08-04T08:39:07.915Z,26.46
2022-08-04T08:44:37.955Z,26.46
2022-08-04T08:50:19.443Z,26.48
2022-08-04T08:55:31.192Z,26.52
2022-08-04T09:00:38.369Z,26.60
2022-08-04T09:05:51.427Z,26.63
2022-08-04T09:10:57.754Z,26.57
2022-08-04T09:16:11.544Z,26.53
2022-08-04T09:21:17.779Z,26.61
2022-08-04T09:26:24.163Z,26.57
2022-08-04T09:31:51.607Z,26.48
2022-08-04T09:36:57.391Z,26.53
2022-08-04T09:42:05.543Z,26.54
2022-08-04T09:47:15.472Z,26.53
2022-08-04T09:52:24.754Z,26.55
2022-08-04T09:57:39.614Z,26.53
2022-08-04T10:02:45.323Z,26.58
2022-08-04T10:08:16.288Z,26.61
2022-08-04T10:13:27.105Z,26.64
2022-08-04T10:18:46.694Z,26.63
2022-08-04T10:24:13.640Z,26.73
2022-08-04T10:29:19.532Z,26.67
2022-08-04T10:34:23.359Z,26.68
2022-08-04T10:39:43.538Z,26.69
2022-08-04T10:44:57.481Z,26.73
2022-08-04T10:50:01.759Z,26.74
2022-08-04T10:55:08.038Z,26.76
2022-08-04T11:00:16.498Z,26.82
2022-08-04T11:05:25.121Z,26.80
2022-08-04T11:10:29.807Z,26.82
2022-08-04T11:15:37.298Z,26.82
2022-08-04T11:20:46.498Z,26.83
2022-08-04T11:25:52.448Z,26.84
2022-08-04T11:30:59.316Z,26.84
2022-08-04T11:36:04.088Z,26.84
2022-08-04T11:41:11.580Z,26.86
2022-08-04T11:46:19.716Z,26.88
2022-08-04T11:51:22.656Z,26.90
2022-08-04T11:56:36.558Z,26.86
2022-08-04T12:01:52.140Z,26.84
2022-08-04T12:07:15.089Z,26.80
2022-08-04T12:12:22.214Z,26.77
2022-08-04T12:17:35.309Z,26.77
2022-08-04T12:22:55.984Z,26.77
2022-08-04T12:28:00.496Z,26.77
2022-08-04T12:33:06.725Z,26.77
2022-08-04T12:38:12.349Z,26.79
2022-08-04T12:43:23.254Z,26.81
2022-08-04T12:48:31.106Z,26.83
2022-08-04T12:53:35.505Z,26.88
2022-08-04T12:58:54.790Z,26.93
2022-08-04T13:04:02.033Z,26.90
2022-08-04T13:09:06.488Z,26.90
2022-08-04T13:14:26.499Z,26.95
2022-08-04T13:19:31.683Z,26.95
2022-08-04T13:24:57.013Z,26.98
2022-08-04T13:30:07.660Z,26.97
2022-08-04T13:35:13.088Z,27.00
2022-08-04T13:40:16.207Z,27.01
2022-08-04T13:45:20.717Z,27.01
2022-08-04T13:50:27.417Z,27.02
2022-08-04T13:55:31.618Z,27.03
2022-08-04T14:00:43.746Z,27.07
2022-08-04T14:05:59.105Z,27.08
2022-08-04T14:11:02.965Z,27.10
2022-08-04T14:16:14.981Z,27.08
2022-08-04T14:21:19.220Z,27.12
2022-08-04T14:26:30.190Z,27.14
2022-08-04T14:31:36.248Z,27.15
2022-08-04T14:37:17.857Z,27.17
2022-08-04T14:42:23.941Z,27.16
2022-08-04T14:47:39.881Z,27.21
2022-08-04T14:52:44.047Z,27.21
2022-08-04T14:58:35.009Z,27.27
2022-08-04T15:03:10.408Z,27.33
2022-08-04T15:08:14.922Z,27.41
2022-08-04T15:13:17.735Z,27.46
2022-08-04T15:18:20.588Z,27.55
2022-08-04T15:23:24.623Z,27.64
2022-08-04T15:28:45.808Z,27.72
2022-08-04T15:33:48.615Z,27.79
2022-08-04T15:39:12.783Z,27.85
2022-08-04T15:44:47.936Z,27.94
2022-08-04T15:50:03.830Z,27.98
2022-08-04T15:55:35.524Z,28.05
2022-08-04T16:01:17.059Z,28.06
2022-08-04T16:06:47.321Z,28.15
2022-08-04T16:11:51.536Z,28.13
2022-08-04T16:16:54.429Z,28.21
2022-08-04T16:21:58.149Z,28.25
2022-08-04T16:27:04.659Z,28.21
2022-08-04T16:32:11.924Z,28.28
2022-08-04T16:37:14.954Z,28.29
2022-08-04T16:42:32.552Z,28.26
2022-08-04T16:48:05.542Z,28.24
2022-08-04T16:53:14.684Z,28.25
2022-08-04T16:58:37.198Z,28.21
2022-08-04T17:03:57.695Z,28.26
2022-08-04T17:09:01.443Z,28.26
2022-08-04T17:14:06.503Z,28.27
2022-08-04T17:19:23.933Z,28.28
2022-08-04T17:24:29.307Z,28.28
2022-08-04T17:29:44.301Z,28.27
2022-08-04T17:34:49.176Z,28.30
2022-08-04T17:39:52.154Z,28.30
2022-08-04T17:45:39.844Z,28.35
2022-08-04T17:50:34.630Z,28.30
2022-08-04T17:55:39.586Z,28.29
2022-08-04T18:00:43.948Z,28.31
2022-08-04T18:06:03.476Z,28.30
2022-08-04T18:11:08.112Z,28.32
2022-08-04T18:16:22.239Z,28.31
2022-08-04T18:21:25.839Z,28.38
2022-08-04T18:26:28.738Z,28.35
2022-08-04T18:31:37.463Z,28.37
2022-08-04T18:36:41.182Z,28.34
2022-08-04T18:42:03.697Z,28.35
2022-08-04T18:47:22.482Z,28.37
2022-08-04T18:52:26.516Z,28.34
2022-08-04T19:02:56.085Z,28.36
2022-08-04T19:08:02.001Z,28.36
2022-08-04T19:13:24.774Z,28.36
2022-08-04T19:18:30.999Z,28.36
2022-08-04T19:24:28.583Z,28.38
2022-08-04T19:28:56.969Z,28.40
2022-08-04T19:34:05.013Z,28.39
2022-08-04T19:39:11.852Z,28.30
2022-08-04T19:44:14.945Z,28.30
2022-08-04T19:50:04.623Z,28.39
2022-08-04T19:54:42.181Z,28.40
2022-08-04T19:59:49.156Z,28.41
2022-08-04T20:04:59.247Z,28.39
2022-08-04T20:10:04.615Z,28.34
2022-08-04T20:15:08.141Z,28.30
2022-08-04T20:20:16.591Z,28.32
2022-08-04T20:25:35.995Z,28.32
2022-08-04T20:30:40.506Z,28.32
2022-08-04T20:36:03.196Z,28.32
2022-08-04T20:41:08.170Z,28.33
2022-08-04T20:46:18.538Z,28.34
2022-08-04T20:51:33.446Z,28.31
2022-08-04T20:56:36.708Z,28.31
2022-08-04T21:01:39.540Z,28.32
2022-08-04T21:06:50.101Z,28.32
2022-08-04T21:11:53.042Z,28.28
2022-08-04T21:16:56.506Z,28.30
2022-08-04T21:22:01.132Z,28.31
2022-08-04T21:27:06.252Z,28.32
2022-08-04T21:32:12.596Z,28.29
2022-08-04T21:37:18.068Z,28.33
2022-08-04T21:42:27.811Z,28.31
2022-08-04T21:47:45.763Z,28.37
2022-08-04T21:52:53.321Z,28.36
2022-08-04T21:57:58.638Z,28.39
2022-08-04T22:03:03.142Z,28.39
2022-08-04T22:08:07.666Z,28.41
2022-08-04T22:13:22.968Z,28.39
2022-08-04T22:18:27.925Z,28.38
2022-08-04T22:23:45.093Z,28.40
2022-08-04T22:28:49.282Z,28.40
2022-08-04T22:33:54.523Z,28.40
2022-08-04T22:39:06.829Z,28.42
2022-08-04T22:44:15.372Z,28.39
2022-08-04T22:49:18.858Z,28.45
2022-08-04T22:54:29.826Z,28.42
2022-08-04T22:59:34.578Z,28.45
2022-08-04T23:04:37.568Z,28.44
2022-08-04T23:09:50.079Z,28.47
2022-08-04T23:14:54.739Z,28.41
2022-08-04T23:19:59.101Z,28.41
2022-08-04T23:25:04.006Z,28.37
2022-08-04T23:30:07.563Z,28.06
2022-08-04T23:35:10.810Z,27.98
2022-08-04T23:40:33.782Z,27.82
2022-08-04T23:46:05.028Z,27.72
2022-08-04T23:51:03.988Z,27.68
2022-08-04T23:56:19.670Z,27.95
